SVA1048 OEJN-OERK
Flight info
| Callsign | SVA1048 |
|---|---|
| Flight time | 1h 10m |
| Altitude | 39000 |
| Route | EGREP T532 ORDEM |
| Aircraft | A333/H-SDE3GHIJ2J3J5M1RVWXY/LB2D1 |
Departure
| Time | 2026-05-04 15:53 |
|---|---|
| Airport | King Abdulaziz International Airport (OEJN) |
Arrival
| Time | 2026-05-04 17:03 |
|---|---|
| Airport | King Khalid International Airport (OERK) |
| Time | Latitude | Longitude | Altitude | Speed | Heading |
|---|---|---|---|---|---|
| 2026-05-04 15:22 | 21.66614 | 39.17265 | 34 ft | 0 kts | 250° |
| 2026-05-04 15:23 | 21.66601 | 39.17286 | 34 ft | 0 kts | 264° |
| 2026-05-04 15:45 | 21.66602 | 39.17295 | 34 ft | 3 kts | 259° |
| 2026-05-04 15:45 | 21.66610 | 39.17318 | 32 ft | 3 kts | 230° |
| 2026-05-04 15:45 | 21.66628 | 39.17333 | 32 ft | 3 kts | 193° |
| 2026-05-04 15:45 | 21.66645 | 39.17334 | 31 ft | 0 kts | 160° |
| 2026-05-04 15:47 | 21.66642 | 39.17338 | 32 ft | 1 kts | 138° |
| 2026-05-04 15:47 | 21.66642 | 39.17347 | 31 ft | 2 kts | 97° |
| 2026-05-04 15:47 | 21.66633 | 39.17356 | 32 ft | 0 kts | 158° |
| 2026-05-04 15:47 | 21.66633 | 39.17357 | 32 ft | 0 kts | 158° |
| 2026-05-04 15:49 | 21.66628 | 39.17359 | 32 ft | 2 kts | 158° |
| 2026-05-04 15:49 | 21.66604 | 39.17369 | 33 ft | 6 kts | 157° |
| 2026-05-04 15:49 | 21.66557 | 39.17394 | 34 ft | 9 kts | 148° |
| 2026-05-04 15:49 | 21.66502 | 39.17450 | 34 ft | 13 kts | 127° |
| 2026-05-04 15:50 | 21.66489 | 39.17534 | 34 ft | 8 kts | 66° |
| 2026-05-04 15:50 | 21.66514 | 39.17597 | 34 ft | 10 kts | 69° |
| 2026-05-04 15:50 | 21.66540 | 39.17671 | 34 ft | 11 kts | 70° |
| 2026-05-04 15:50 | 21.66568 | 39.17754 | 34 ft | 13 kts | 70° |
| 2026-05-04 15:51 | 21.66600 | 39.17845 | 34 ft | 13 kts | 70° |
| 2026-05-04 15:51 | 21.66631 | 39.17936 | 36 ft | 14 kts | 70° |
| 2026-05-04 15:51 | 21.66673 | 39.18021 | 36 ft | 12 kts | 31° |
| 2026-05-04 15:51 | 21.66749 | 39.18010 | 36 ft | 11 kts | 340° |
| 2026-05-04 15:52 | 21.66889 | 39.17956 | 38 ft | 44 kts | 340° |
| 2026-05-04 15:52 | 21.67378 | 39.17761 | 33 ft | 104 kts | 340° |
| 2026-05-04 15:52 | 21.68227 | 39.17426 | 32 ft | 155 kts | 340° |
| 2026-05-04 15:52 | 21.69344 | 39.16991 | 426 ft | 177 kts | 339° |
| 2026-05-04 15:53 | 21.70540 | 39.16513 | 1109 ft | 189 kts | 338° |
| 2026-05-04 15:53 | 21.71777 | 39.16026 | 2031 ft | 185 kts | 339° |
| 2026-05-04 15:53 | 21.72980 | 39.15564 | 2928 ft | 182 kts | 338° |
| 2026-05-04 15:53 | 21.74194 | 39.15099 | 3500 ft | 191 kts | 339° |
| 2026-05-04 15:54 | 21.75461 | 39.14613 | 4046 ft | 199 kts | 339° |
| 2026-05-04 15:54 | 21.76754 | 39.14055 | 4671 ft | 201 kts | 334° |
| 2026-05-04 15:54 | 21.78054 | 39.13409 | 5224 ft | 209 kts | 333° |
| 2026-05-04 15:54 | 21.79377 | 39.12730 | 5642 ft | 210 kts | 332° |
| 2026-05-04 15:55 | 21.80697 | 39.12035 | 6050 ft | 214 kts | 332° |
| 2026-05-04 15:55 | 21.82048 | 39.11310 | 6641 ft | 218 kts | 331° |
| 2026-05-04 15:55 | 21.83424 | 39.10643 | 7358 ft | 217 kts | 339° |
| 2026-05-04 15:55 | 21.84933 | 39.10396 | 7996 ft | 227 kts | 358° |
| 2026-05-04 15:56 | 21.86531 | 39.10876 | 8310 ft | 256 kts | 24° |
| 2026-05-04 15:56 | 21.88054 | 39.12027 | 8617 ft | 281 kts | 39° |
| 2026-05-04 15:56 | 21.89470 | 39.13577 | 9065 ft | 296 kts | 47° |
| 2026-05-04 15:56 | 21.90811 | 39.15310 | 9667 ft | 306 kts | 50° |
| 2026-05-04 15:57 | 21.92142 | 39.17114 | 10359 ft | 309 kts | 51° |
| 2026-05-04 15:57 | 21.93500 | 39.18933 | 11022 ft | 314 kts | 50° |
| 2026-05-04 15:57 | 21.94899 | 39.20749 | 11614 ft | 322 kts | 49° |
| 2026-05-04 15:57 | 21.96358 | 39.22579 | 12424 ft | 321 kts | 49° |
| 2026-05-04 15:58 | 21.97844 | 39.24403 | 13154 ft | 326 kts | 49° |
| 2026-05-04 15:58 | 21.99361 | 39.26242 | 13817 ft | 330 kts | 49° |
| 2026-05-04 15:58 | 22.00895 | 39.28091 | 14484 ft | 332 kts | 48° |
| 2026-05-04 15:58 | 22.02444 | 39.29956 | 15087 ft | 336 kts | 48° |
| 2026-05-04 15:59 | 22.04017 | 39.31851 | 15754 ft | 339 kts | 48° |
| 2026-05-04 15:59 | 22.05590 | 39.33749 | 16439 ft | 341 kts | 48° |
| 2026-05-04 15:59 | 22.07158 | 39.35644 | 17035 ft | 345 kts | 47° |
| 2026-05-04 15:59 | 22.08755 | 39.37577 | 17719 ft | 346 kts | 47° |
| 2026-05-04 16:00 | 22.10362 | 39.39523 | 18345 ft | 349 kts | 47° |
| 2026-05-04 16:00 | 22.11983 | 39.41487 | 18862 ft | 353 kts | 47° |
| 2026-05-04 16:00 | 22.13626 | 39.43479 | 19410 ft | 356 kts | 47° |
| 2026-05-04 16:00 | 22.15284 | 39.45489 | 19931 ft | 360 kts | 47° |
| 2026-05-04 16:01 | 22.16955 | 39.47517 | 20458 ft | 363 kts | 47° |
| 2026-05-04 16:01 | 22.18638 | 39.49561 | 21015 ft | 366 kts | 47° |
| 2026-05-04 16:01 | 22.20340 | 39.51627 | 21508 ft | 370 kts | 47° |
| 2026-05-04 16:01 | 22.22041 | 39.53694 | 22013 ft | 373 kts | 47° |
| 2026-05-04 16:02 | 22.23778 | 39.55804 | 22517 ft | 377 kts | 47° |
| 2026-05-04 16:02 | 22.25528 | 39.57933 | 23023 ft | 381 kts | 47° |
| 2026-05-04 16:02 | 22.29068 | 39.62239 | 23967 ft | 387 kts | 47° |
| 2026-05-04 16:03 | 22.30868 | 39.64430 | 24337 ft | 391 kts | 47° |
| 2026-05-04 16:03 | 22.32684 | 39.66642 | 24705 ft | 396 kts | 47° |
| 2026-05-04 16:03 | 22.34504 | 39.68858 | 25090 ft | 402 kts | 47° |
| 2026-05-04 16:03 | 22.36368 | 39.71130 | 25458 ft | 406 kts | 47° |
| 2026-05-04 16:04 | 22.38254 | 39.73430 | 25837 ft | 410 kts | 46° |
| 2026-05-04 16:04 | 22.42071 | 39.78084 | 26608 ft | 417 kts | 46° |
| 2026-05-04 16:04 | 22.44005 | 39.80445 | 26947 ft | 422 kts | 46° |
| 2026-05-04 16:05 | 22.45982 | 39.82803 | 27310 ft | 424 kts | 42° |
| 2026-05-04 16:05 | 22.48122 | 39.85003 | 27713 ft | 426 kts | 40° |
| 2026-05-04 16:05 | 22.52535 | 39.89309 | 28361 ft | 434 kts | 38° |
| 2026-05-04 16:06 | 22.54816 | 39.91478 | 28690 ft | 438 kts | 38° |
| 2026-05-04 16:06 | 22.60982 | 39.97325 | 29656 ft | 446 kts | 38° |
| 2026-05-04 16:07 | 22.64115 | 40.00312 | 30095 ft | 451 kts | 38° |
| 2026-05-04 16:07 | 22.71206 | 40.07100 | 31121 ft | 454 kts | 38° |
| 2026-05-04 16:08 | 22.73577 | 40.09373 | 31457 ft | 455 kts | 38° |
| 2026-05-04 16:08 | 22.80659 | 40.16166 | 32447 ft | 457 kts | 37° |
| 2026-05-04 16:09 | 22.85476 | 40.20786 | 32716 ft | 468 kts | 37° |
| 2026-05-04 16:09 | 22.90419 | 40.25532 | 32945 ft | 480 kts | 38° |
| 2026-05-04 16:10 | 22.95478 | 40.30398 | 33169 ft | 491 kts | 38° |
| 2026-05-04 16:11 | 23.03243 | 40.37881 | 33509 ft | 507 kts | 38° |
| 2026-05-04 16:11 | 23.05904 | 40.40447 | 33614 ft | 513 kts | 38° |
| 2026-05-04 16:12 | 23.13999 | 40.48262 | 33918 ft | 529 kts | 38° |
| 2026-05-04 16:12 | 23.22337 | 40.56329 | 34413 ft | 537 kts | 38° |
| 2026-05-04 16:13 | 23.27380 | 40.62358 | 34995 ft | 542 kts | 56° |
| 2026-05-04 16:13 | 23.30701 | 40.69768 | 35367 ft | 547 kts | 68° |
| 2026-05-04 16:14 | 23.33398 | 40.77434 | 35984 ft | 545 kts | 70° |
| 2026-05-04 16:14 | 23.36006 | 40.85175 | 36541 ft | 543 kts | 70° |
| 2026-05-04 16:15 | 23.39939 | 40.96681 | 37412 ft | 540 kts | 70° |
| 2026-05-04 16:16 | 23.42583 | 41.04336 | 37870 ft | 540 kts | 70° |
| 2026-05-04 16:16 | 23.46545 | 41.15814 | 38620 ft | 538 kts | 70° |
| 2026-05-04 16:17 | 23.49176 | 41.23458 | 38931 ft | 540 kts | 70° |
| 2026-05-04 16:18 | 23.52715 | 41.33768 | 38957 ft | 551 kts | 70° |
| 2026-05-04 16:18 | 23.54061 | 41.37695 | 38953 ft | 555 kts | 70° |
| 2026-05-04 16:19 | 23.60815 | 41.57449 | 38943 ft | 556 kts | 70° |
| 2026-05-04 16:20 | 23.67521 | 41.77196 | 38942 ft | 556 kts | 71° |
| 2026-05-04 16:22 | 23.73856 | 41.97109 | 38941 ft | 555 kts | 72° |
| 2026-05-04 16:23 | 23.81863 | 42.20718 | 38938 ft | 553 kts | 70° |
| 2026-05-04 16:25 | 23.89908 | 42.44363 | 38948 ft | 553 kts | 70° |
| 2026-05-04 16:26 | 23.99251 | 42.72029 | 38953 ft | 555 kts | 70° |
| 2026-05-04 16:28 | 24.05896 | 42.91846 | 38953 ft | 556 kts | 71° |
| 2026-05-04 16:29 | 24.15063 | 43.19765 | 38949 ft | 558 kts | 71° |
| 2026-05-04 16:31 | 24.21599 | 43.39775 | 38939 ft | 558 kts | 71° |
| 2026-05-04 16:32 | 24.29401 | 43.63793 | 38934 ft | 558 kts | 71° |
| 2026-05-04 16:33 | 24.34580 | 43.79814 | 38932 ft | 558 kts | 71° |
| 2026-05-04 16:34 | 24.38466 | 43.91877 | 38927 ft | 559 kts | 71° |
| 2026-05-04 16:35 | 24.45617 | 44.16179 | 38912 ft | 556 kts | 80° |
| 2026-05-04 16:36 | 24.47858 | 44.28681 | 38913 ft | 557 kts | 82° |
| 2026-05-04 16:37 | 24.49997 | 44.41217 | 38919 ft | 557 kts | 82° |
| 2026-05-04 16:38 | 24.52863 | 44.57881 | 38837 ft | 555 kts | 82° |
| 2026-05-04 16:39 | 24.55004 | 44.70374 | 38452 ft | 558 kts | 81° |
| 2026-05-04 16:39 | 24.56433 | 44.78748 | 38019 ft | 558 kts | 81° |
| 2026-05-04 16:40 | 24.57758 | 44.86541 | 37540 ft | 559 kts | 81° |
| 2026-05-04 16:40 | 24.59182 | 44.94948 | 37035 ft | 560 kts | 81° |
| 2026-05-04 16:41 | 24.60602 | 45.03366 | 36479 ft | 561 kts | 81° |
| 2026-05-04 16:41 | 24.62730 | 45.16039 | 35278 ft | 562 kts | 81° |
| 2026-05-04 16:42 | 24.64839 | 45.28667 | 33908 ft | 562 kts | 81° |
| 2026-05-04 16:43 | 24.66246 | 45.37133 | 32893 ft | 564 kts | 81° |
| 2026-05-04 16:43 | 24.67657 | 45.45646 | 31905 ft | 566 kts | 81° |
| 2026-05-04 16:43 | 24.68361 | 45.49909 | 31429 ft | 567 kts | 81° |
| 2026-05-04 16:44 | 24.71185 | 45.66958 | 29272 ft | 568 kts | 80° |
| 2026-05-04 16:45 | 24.71639 | 45.75520 | 28030 ft | 553 kts | 90° |
| 2026-05-04 16:46 | 24.71860 | 45.87971 | 26562 ft | 535 kts | 90° |
| 2026-05-04 16:46 | 24.72142 | 45.96072 | 25703 ft | 526 kts | 88° |
| 2026-05-04 16:47 | 24.72421 | 46.04037 | 24805 ft | 516 kts | 88° |
| 2026-05-04 16:47 | 24.72665 | 46.11798 | 23877 ft | 504 kts | 88° |
| 2026-05-04 16:48 | 24.73096 | 46.23091 | 22027 ft | 482 kts | 88° |
| 2026-05-04 16:48 | 24.73207 | 46.26754 | 21399 ft | 475 kts | 89° |
| 2026-05-04 16:49 | 24.73365 | 46.33917 | 20178 ft | 462 kts | 89° |
| 2026-05-04 16:49 | 24.73695 | 46.40865 | 19003 ft | 449 kts | 76° |
| 2026-05-04 16:50 | 24.76469 | 46.46838 | 17818 ft | 436 kts | 54° |
| 2026-05-04 16:50 | 24.79755 | 46.52363 | 16316 ft | 434 kts | 57° |
| 2026-05-04 16:51 | 24.82849 | 46.57976 | 14869 ft | 430 kts | 58° |
| 2026-05-04 16:51 | 24.84132 | 46.60929 | 14154 ft | 428 kts | 74° |
| 2026-05-04 16:51 | 24.83935 | 46.67308 | 12691 ft | 415 kts | 112° |
| 2026-05-04 16:52 | 24.80467 | 46.71716 | 11584 ft | 361 kts | 156° |
| 2026-05-04 16:52 | 24.78138 | 46.72400 | 11103 ft | 337 kts | 180° |
| 2026-05-04 16:53 | 24.73701 | 46.72034 | 10174 ft | 307 kts | 178° |
| 2026-05-04 16:53 | 24.67820 | 46.73765 | 8776 ft | 279 kts | 157° |
| 2026-05-04 16:54 | 24.66093 | 46.74651 | 8370 ft | 270 kts | 155° |
| 2026-05-04 16:55 | 24.60050 | 46.78553 | 6894 ft | 242 kts | 133° |
| 2026-05-04 16:55 | 24.59042 | 46.81942 | 5833 ft | 242 kts | 80° |
| 2026-05-04 16:56 | 24.61109 | 46.84636 | 5050 ft | 241 kts | 19° |
| 2026-05-04 16:56 | 24.66119 | 46.84746 | 4996 ft | 241 kts | 358° |
| 2026-05-04 16:57 | 24.67795 | 46.84703 | 4994 ft | 241 kts | 359° |
| 2026-05-04 16:57 | 24.71032 | 46.83978 | 4997 ft | 240 kts | 332° |
| 2026-05-04 16:58 | 24.75338 | 46.81263 | 4994 ft | 231 kts | 329° |
| 2026-05-04 16:58 | 24.76721 | 46.80387 | 4995 ft | 229 kts | 330° |
| 2026-05-04 16:59 | 24.79376 | 46.78739 | 4985 ft | 205 kts | 329° |
| 2026-05-04 17:00 | 24.83973 | 46.75825 | 4171 ft | 175 kts | 329° |
| 2026-05-04 17:00 | 24.86942 | 46.73941 | 3565 ft | 162 kts | 329° |
| 2026-05-04 17:01 | 24.88877 | 46.72715 | 3181 ft | 162 kts | 329° |
| 2026-05-04 17:01 | 24.90815 | 46.71460 | 2767 ft | 162 kts | 330° |
| 2026-05-04 17:02 | 24.92741 | 46.70240 | 2333 ft | 160 kts | 330° |
| 2026-05-04 17:02 | 24.94584 | 46.69075 | 2039 ft | 131 kts | 330° |
| 2026-05-04 17:03 | 24.95134 | 46.68730 | 2041 ft | 52 kts | 330° |
| 2026-05-04 17:03 | 24.95348 | 46.68674 | 2034 ft | 44 kts | 4° |
| 2026-05-04 17:03 | 24.95404 | 46.68901 | 2042 ft | 22 kts | 150° |
| 2026-05-04 17:04 | 24.95131 | 46.69074 | 2041 ft | 23 kts | 150° |
| 2026-05-04 17:04 | 24.94851 | 46.69250 | 2044 ft | 24 kts | 150° |
| 2026-05-04 17:05 | 24.94563 | 46.69433 | 2044 ft | 24 kts | 145° |
| 2026-05-04 17:05 | 24.94615 | 46.69717 | 2044 ft | 21 kts | 60° |
| 2026-05-04 17:06 | 24.94767 | 46.70006 | 2044 ft | 22 kts | 59° |
| 2026-05-04 17:06 | 24.94845 | 46.70156 | 2043 ft | 23 kts | 60° |
| 2026-05-04 17:07 | 24.94989 | 46.70430 | 2043 ft | 23 kts | 60° |
| 2026-05-04 17:07 | 24.95022 | 46.70494 | 2042 ft | 24 kts | 60° |
| 2026-05-04 17:07 | 24.95135 | 46.70705 | 2043 ft | 24 kts | 60° |
| 2026-05-04 17:07 | 24.95182 | 46.70860 | 2043 ft | 20 kts | 122° |
| 2026-05-04 17:08 | 24.95068 | 46.70944 | 2044 ft | 20 kts | 149° |
| 2026-05-04 17:08 | 24.94824 | 46.71105 | 2043 ft | 21 kts | 149° |
| 2026-05-04 17:08 | 24.94693 | 46.71183 | 2043 ft | 22 kts | 153° |
| 2026-05-04 17:09 | 24.94562 | 46.71265 | 2043 ft | 22 kts | 150° |
| 2026-05-04 17:09 | 24.94429 | 46.71350 | 2037 ft | 22 kts | 150° |
| 2026-05-04 17:09 | 24.94368 | 46.71388 | 2044 ft | 7 kts | 150° |
| 2026-05-04 17:10 | 24.94323 | 46.71373 | 2045 ft | 3 kts | 237° |
| 2026-05-04 17:10 | 24.94290 | 46.71310 | 2043 ft | 0 kts | 240° |